sensor_id;sensor_type;location;lat;lon;timestamp;P1;durP1;ratioP1;P2;durP2;ratioP2
55372;SDS011;41249;47.838;16.490;2023-03-14T00:00:18;5.78;;;2.17;;
55372;SDS011;41249;47.838;16.490;2023-03-14T00:02:45;6.30;;;2.30;;
55372;SDS011;41249;47.838;16.490;2023-03-14T00:05:12;5.70;;;2.63;;
55372;SDS011;41249;47.838;16.490;2023-03-14T00:07:39;3.42;;;1.88;;
55372;SDS011;41249;47.838;16.490;2023-03-14T00:10:07;3.58;;;1.60;;
55372;SDS011;41249;47.838;16.490;2023-03-14T00:12:36;4.97;;;2.30;;
55372;SDS011;41249;47.838;16.490;2023-03-14T00:15:03;3.78;;;1.95;;
55372;SDS011;41249;47.838;16.490;2023-03-14T00:17:30;4.32;;;2.13;;
55372;SDS011;41249;47.838;16.490;2023-03-14T00:19:57;6.20;;;1.85;;
55372;SDS011;41249;47.838;16.490;2023-03-14T00:22:30;3.53;;;1.73;;
55372;SDS011;41249;47.838;16.490;2023-03-14T00:24:57;10.30;;;2.10;;
55372;SDS011;41249;47.838;16.490;2023-03-14T00:27:24;4.13;;;2.10;;
55372;SDS011;41249;47.838;16.490;2023-03-14T00:29:51;4.50;;;1.80;;
55372;SDS011;41249;47.838;16.490;2023-03-14T00:32:17;2.97;;;1.70;;
55372;SDS011;41249;47.838;16.490;2023-03-14T00:34:44;3.97;;;1.98;;
55372;SDS011;41249;47.838;16.490;2023-03-14T00:37:11;4.70;;;1.90;;
55372;SDS011;41249;47.838;16.490;2023-03-14T00:39:37;3.05;;;1.70;;
55372;SDS011;41249;47.838;16.490;2023-03-14T00:42:04;4.82;;;2.05;;
55372;SDS011;41249;47.838;16.490;2023-03-14T00:44:30;5.35;;;2.00;;
55372;SDS011;41249;47.838;16.490;2023-03-14T00:46:58;3.42;;;1.50;;
55372;SDS011;41249;47.838;16.490;2023-03-14T00:49:25;4.57;;;1.92;;
55372;SDS011;41249;47.838;16.490;2023-03-14T00:51:51;3.60;;;1.27;;
55372;SDS011;41249;47.838;16.490;2023-03-14T00:54:19;4.57;;;1.88;;
55372;SDS011;41249;47.838;16.490;2023-03-14T00:56:46;2.83;;;1.50;;
55372;SDS011;41249;47.838;16.490;2023-03-14T00:59:13;4.60;;;1.73;;
55372;SDS011;41249;47.838;16.490;2023-03-14T01:01:41;4.97;;;1.60;;
55372;SDS011;41249;47.838;16.490;2023-03-14T01:04:08;5.53;;;2.08;;
55372;SDS011;41249;47.838;16.490;2023-03-14T01:06:34;7.60;;;1.83;;
55372;SDS011;41249;47.838;16.490;2023-03-14T01:09:01;5.55;;;1.75;;
55372;SDS011;41249;47.838;16.490;2023-03-14T01:11:30;4.00;;;1.92;;
55372;SDS011;41249;47.838;16.490;2023-03-14T01:13:59;6.63;;;1.85;;
55372;SDS011;41249;47.838;16.490;2023-03-14T01:16:27;6.25;;;1.90;;
55372;SDS011;41249;47.838;16.490;2023-03-14T01:18:56;5.32;;;1.70;;
55372;SDS011;41249;47.838;16.490;2023-03-14T01:21:24;3.85;;;1.77;;
55372;SDS011;41249;47.838;16.490;2023-03-14T01:23:56;5.07;;;1.80;;
55372;SDS011;41249;47.838;16.490;2023-03-14T01:26:25;4.07;;;1.60;;
55372;SDS011;41249;47.838;16.490;2023-03-14T01:28:53;5.35;;;2.08;;
55372;SDS011;41249;47.838;16.490;2023-03-14T01:31:21;3.28;;;1.40;;
55372;SDS011;41249;47.838;16.490;2023-03-14T01:33:49;6.40;;;1.80;;
55372;SDS011;41249;47.838;16.490;2023-03-14T01:36:15;7.00;;;1.88;;
55372;SDS011;41249;47.838;16.490;2023-03-14T01:38:42;3.75;;;1.75;;
55372;SDS011;41249;47.838;16.490;2023-03-14T01:41:11;19.10;;;1.73;;
55372;SDS011;41249;47.838;16.490;2023-03-14T01:43:44;3.58;;;1.50;;
55372;SDS011;41249;47.838;16.490;2023-03-14T01:46:14;4.82;;;1.83;;
55372;SDS011;41249;47.838;16.490;2023-03-14T01:48:48;4.03;;;1.88;;
55372;SDS011;41249;47.838;16.490;2023-03-14T01:51:28;6.57;;;1.50;;
55372;SDS011;41249;47.838;16.490;2023-03-14T01:54:06;4.25;;;1.65;;
55372;SDS011;41249;47.838;16.490;2023-03-14T01:56:37;2.72;;;1.60;;
55372;SDS011;41249;47.838;16.490;2023-03-14T01:59:07;3.42;;;1.63;;
55372;SDS011;41249;47.838;16.490;2023-03-14T02:01:36;2.75;;;1.63;;
55372;SDS011;41249;47.838;16.490;2023-03-14T02:04:06;4.78;;;1.67;;
55372;SDS011;41249;47.838;16.490;2023-03-14T02:06:38;3.78;;;1.75;;
55372;SDS011;41249;47.838;16.490;2023-03-14T02:09:10;2.22;;;1.55;;
55372;SDS011;41249;47.838;16.490;2023-03-14T02:11:37;4.82;;;1.63;;
55372;SDS011;41249;47.838;16.490;2023-03-14T02:14:04;2.47;;;1.40;;
55372;SDS011;41249;47.838;16.490;2023-03-14T02:16:31;5.55;;;2.15;;
55372;SDS011;41249;47.838;16.490;2023-03-14T02:18:58;2.67;;;1.70;;
55372;SDS011;41249;47.838;16.490;2023-03-14T02:27:30;4.18;;;1.63;;
55372;SDS011;41249;47.838;16.490;2023-03-14T02:29:58;5.25;;;1.70;;
55372;SDS011;41249;47.838;16.490;2023-03-14T02:32:27;5.47;;;1.80;;
55372;SDS011;41249;47.838;16.490;2023-03-14T02:34:57;2.70;;;1.52;;
55372;SDS011;41249;47.838;16.490;2023-03-14T02:37:27;5.22;;;1.73;;
55372;SDS011;41249;47.838;16.490;2023-03-14T02:39:59;2.72;;;1.40;;
55372;SDS011;41249;47.838;16.490;2023-03-14T02:42:26;3.38;;;1.92;;
55372;SDS011;41249;47.838;16.490;2023-03-14T02:47:31;5.70;;;1.48;;
55372;SDS011;41249;47.838;16.490;2023-03-14T02:49:59;2.30;;;1.30;;
55372;SDS011;41249;47.838;16.490;2023-03-14T02:52:29;4.00;;;1.27;;
55372;SDS011;41249;47.838;16.490;2023-03-14T02:54:56;3.58;;;1.25;;
55372;SDS011;41249;47.838;16.490;2023-03-14T02:57:23;1.85;;;1.02;;
55372;SDS011;41249;47.838;16.490;2023-03-14T02:59:49;3.15;;;1.20;;
55372;SDS011;41249;47.838;16.490;2023-03-14T03:02:16;1.20;;;0.93;;
55372;SDS011;41249;47.838;16.490;2023-03-14T03:04:43;1.63;;;0.95;;
55372;SDS011;41249;47.838;16.490;2023-03-14T03:07:09;1.17;;;0.88;;
55372;SDS011;41249;47.838;16.490;2023-03-14T03:09:36;3.35;;;0.90;;
55372;SDS011;41249;47.838;16.490;2023-03-14T03:12:03;1.08;;;0.70;;
55372;SDS011;41249;47.838;16.490;2023-03-14T03:14:29;3.85;;;0.70;;
55372;SDS011;41249;47.838;16.490;2023-03-14T03:16:56;1.80;;;0.80;;
55372;SDS011;41249;47.838;16.490;2023-03-14T03:19:23;1.73;;;0.98;;
55372;SDS011;41249;47.838;16.490;2023-03-14T03:21:49;2.80;;;1.00;;
55372;SDS011;41249;47.838;16.490;2023-03-14T03:24:16;1.50;;;0.90;;
55372;SDS011;41249;47.838;16.490;2023-03-14T03:26:43;1.83;;;1.13;;
55372;SDS011;41249;47.838;16.490;2023-03-14T03:29:09;1.38;;;0.80;;
55372;SDS011;41249;47.838;16.490;2023-03-14T03:31:37;3.40;;;1.50;;
55372;SDS011;41249;47.838;16.490;2023-03-14T03:34:04;2.35;;;0.95;;
55372;SDS011;41249;47.838;16.490;2023-03-14T03:36:31;2.08;;;1.30;;
55372;SDS011;41249;47.838;16.490;2023-03-14T03:38:57;3.20;;;1.33;;
55372;SDS011;41249;47.838;16.490;2023-03-14T03:41:24;4.85;;;1.20;;
55372;SDS011;41249;47.838;16.490;2023-03-14T03:43:51;4.40;;;1.48;;
55372;SDS011;41249;47.838;16.490;2023-03-14T03:46:17;2.88;;;1.30;;
55372;SDS011;41249;47.838;16.490;2023-03-14T03:48:44;4.80;;;1.80;;
55372;SDS011;41249;47.838;16.490;2023-03-14T03:51:12;2.80;;;1.30;;
55372;SDS011;41249;47.838;16.490;2023-03-14T03:53:41;3.33;;;1.20;;
55372;SDS011;41249;47.838;16.490;2023-03-14T03:56:08;3.10;;;1.20;;
55372;SDS011;41249;47.838;16.490;2023-03-14T03:58:35;1.60;;;1.10;;
55372;SDS011;41249;47.838;16.490;2023-03-14T04:01:05;2.22;;;1.20;;
55372;SDS011;41249;47.838;16.490;2023-03-14T04:03:33;2.38;;;1.17;;
55372;SDS011;41249;47.838;16.490;2023-03-14T04:06:01;2.88;;;1.35;;
55372;SDS011;41249;47.838;16.490;2023-03-14T04:08:31;2.25;;;0.88;;
55372;SDS011;41249;47.838;16.490;2023-03-14T04:10:58;1.55;;;0.93;;
55372;SDS011;41249;47.838;16.490;2023-03-14T04:13:26;2.15;;;1.40;;
55372;SDS011;41249;47.838;16.490;2023-03-14T04:15:54;2.47;;;1.10;;
55372;SDS011;41249;47.838;16.490;2023-03-14T04:18:21;1.55;;;1.00;;
55372;SDS011;41249;47.838;16.490;2023-03-14T04:20:51;2.58;;;0.80;;
55372;SDS011;41249;47.838;16.490;2023-03-14T04:23:19;1.13;;;0.90;;
55372;SDS011;41249;47.838;16.490;2023-03-14T04:25:46;1.52;;;1.10;;
55372;SDS011;41249;47.838;16.490;2023-03-14T04:28:14;2.45;;;1.38;;
55372;SDS011;41249;47.838;16.490;2023-03-14T04:30:41;5.00;;;1.88;;
55372;SDS011;41249;47.838;16.490;2023-03-14T04:33:07;6.35;;;2.55;;
55372;SDS011;41249;47.838;16.490;2023-03-14T04:35:34;8.95;;;3.92;;
55372;SDS011;41249;47.838;16.490;2023-03-14T04:38:00;12.05;;;2.10;;
55372;SDS011;41249;47.838;16.490;2023-03-14T04:40:27;4.65;;;1.75;;
55372;SDS011;41249;47.838;16.490;2023-03-14T04:42:54;4.78;;;1.80;;
55372;SDS011;41249;47.838;16.490;2023-03-14T04:45:20;1.70;;;1.20;;
55372;SDS011;41249;47.838;16.490;2023-03-14T04:47:47;4.78;;;2.08;;
55372;SDS011;41249;47.838;16.490;2023-03-14T04:50:13;3.47;;;1.58;;
55372;SDS011;41249;47.838;16.490;2023-03-14T04:52:40;2.50;;;1.30;;
55372;SDS011;41249;47.838;16.490;2023-03-14T04:55:07;3.67;;;1.75;;
55372;SDS011;41249;47.838;16.490;2023-03-14T04:57:33;4.45;;;1.45;;
55372;SDS011;41249;47.838;16.490;2023-03-14T05:00:00;2.97;;;1.80;;
55372;SDS011;41249;47.838;16.490;2023-03-14T05:02:26;6.53;;;2.33;;
55372;SDS011;41249;47.838;16.490;2023-03-14T05:04:53;3.05;;;2.03;;
55372;SDS011;41249;47.838;16.490;2023-03-14T05:07:20;3.88;;;2.00;;
55372;SDS011;41249;47.838;16.490;2023-03-14T05:09:46;3.97;;;2.28;;
55372;SDS011;41249;47.838;16.490;2023-03-14T05:12:13;7.32;;;2.35;;
55372;SDS011;41249;47.838;16.490;2023-03-14T05:14:39;3.75;;;2.20;;
55372;SDS011;41249;47.838;16.490;2023-03-14T05:17:06;4.40;;;2.40;;
55372;SDS011;41249;47.838;16.490;2023-03-14T05:19:33;4.30;;;2.25;;
55372;SDS011;41249;47.838;16.490;2023-03-14T05:22:01;4.78;;;2.85;;
55372;SDS011;41249;47.838;16.490;2023-03-14T05:24:28;3.58;;;1.83;;
55372;SDS011;41249;47.838;16.490;2023-03-14T05:26:55;5.45;;;1.85;;
55372;SDS011;41249;47.838;16.490;2023-03-14T05:29:21;3.28;;;2.05;;
55372;SDS011;41249;47.838;16.490;2023-03-14T05:31:48;2.75;;;1.65;;
55372;SDS011;41249;47.838;16.490;2023-03-14T05:34:15;2.33;;;1.27;;
55372;SDS011;41249;47.838;16.490;2023-03-14T05:36:41;3.17;;;1.60;;
55372;SDS011;41249;47.838;16.490;2023-03-14T05:39:08;16.88;;;1.55;;
55372;SDS011;41249;47.838;16.490;2023-03-14T05:41:35;3.22;;;1.70;;
55372;SDS011;41249;47.838;16.490;2023-03-14T05:44:02;2.17;;;1.40;;
55372;SDS011;41249;47.838;16.490;2023-03-14T05:46:28;4.25;;;1.80;;
55372;SDS011;41249;47.838;16.490;2023-03-14T05:48:57;3.10;;;1.52;;
55372;SDS011;41249;47.838;16.490;2023-03-14T05:51:24;3.33;;;1.55;;
55372;SDS011;41249;47.838;16.490;2023-03-14T05:53:51;3.58;;;1.15;;
55372;SDS011;41249;47.838;16.490;2023-03-14T05:56:18;3.03;;;1.80;;
55372;SDS011;41249;47.838;16.490;2023-03-14T05:58:45;2.95;;;2.13;;
55372;SDS011;41249;47.838;16.490;2023-03-14T06:01:12;5.72;;;2.08;;
55372;SDS011;41249;47.838;16.490;2023-03-14T06:03:38;1.90;;;1.40;;
55372;SDS011;41249;47.838;16.490;2023-03-14T06:06:05;2.00;;;0.80;;
55372;SDS011;41249;47.838;16.490;2023-03-14T06:08:32;4.85;;;1.73;;
55372;SDS011;41249;47.838;16.490;2023-03-14T06:11:02;4.60;;;1.80;;
55372;SDS011;41249;47.838;16.490;2023-03-14T06:13:29;4.15;;;1.30;;
55372;SDS011;41249;47.838;16.490;2023-03-14T06:15:56;7.65;;;1.60;;
55372;SDS011;41249;47.838;16.490;2023-03-14T06:18:23;2.42;;;1.38;;
55372;SDS011;41249;47.838;16.490;2023-03-14T06:20:51;2.00;;;1.20;;
55372;SDS011;41249;47.838;16.490;2023-03-14T06:23:20;5.28;;;1.30;;
55372;SDS011;41249;47.838;16.490;2023-03-14T06:25:46;4.15;;;1.50;;
55372;SDS011;41249;47.838;16.490;2023-03-14T06:28:13;2.80;;;1.50;;
55372;SDS011;41249;47.838;16.490;2023-03-14T06:30:40;2.53;;;1.25;;
55372;SDS011;41249;47.838;16.490;2023-03-14T06:33:06;12.82;;;5.65;;
55372;SDS011;41249;47.838;16.490;2023-03-14T06:35:33;18.30;;;6.68;;
55372;SDS011;41249;47.838;16.490;2023-03-14T06:38:00;12.13;;;4.82;;
55372;SDS011;41249;47.838;16.490;2023-03-14T06:40:27;11.18;;;4.05;;
55372;SDS011;41249;47.838;16.490;2023-03-14T06:42:53;11.35;;;4.72;;
55372;SDS011;41249;47.838;16.490;2023-03-14T06:45:20;8.25;;;3.78;;
55372;SDS011;41249;47.838;16.490;2023-03-14T06:47:46;3.38;;;1.75;;
55372;SDS011;41249;47.838;16.490;2023-03-14T06:50:13;3.50;;;1.17;;
55372;SDS011;41249;47.838;16.490;2023-03-14T06:52:40;3.95;;;1.17;;
55372;SDS011;41249;47.838;16.490;2023-03-14T06:55:14;4.00;;;1.15;;
55372;SDS011;41249;47.838;16.490;2023-03-14T06:57:41;1.42;;;0.90;;
55372;SDS011;41249;47.838;16.490;2023-03-14T07:00:11;10.77;;;2.35;;
55372;SDS011;41249;47.838;16.490;2023-03-14T07:02:38;6.63;;;3.33;;
55372;SDS011;41249;47.838;16.490;2023-03-14T07:05:08;4.38;;;2.40;;
55372;SDS011;41249;47.838;16.490;2023-03-14T07:07:38;7.47;;;2.33;;
55372;SDS011;41249;47.838;16.490;2023-03-14T07:10:05;4.50;;;1.70;;
55372;SDS011;41249;47.838;16.490;2023-03-14T07:12:35;6.18;;;2.50;;
55372;SDS011;41249;47.838;16.490;2023-03-14T07:15:02;5.43;;;2.40;;
55372;SDS011;41249;47.838;16.490;2023-03-14T07:17:43;7.78;;;3.25;;
55372;SDS011;41249;47.838;16.490;2023-03-14T07:20:10;4.03;;;2.22;;
55372;SDS011;41249;47.838;16.490;2023-03-14T07:22:37;4.50;;;1.70;;
55372;SDS011;41249;47.838;16.490;2023-03-14T07:25:03;3.40;;;1.52;;
55372;SDS011;41249;47.838;16.490;2023-03-14T07:27:30;3.83;;;1.40;;
55372;SDS011;41249;47.838;16.490;2023-03-14T07:29:57;3.63;;;1.25;;
55372;SDS011;41249;47.838;16.490;2023-03-14T07:32:24;2.20;;;1.30;;
55372;SDS011;41249;47.838;16.490;2023-03-14T07:34:50;3.13;;;1.25;;
55372;SDS011;41249;47.838;16.490;2023-03-14T07:37:17;2.05;;;1.55;;
55372;SDS011;41249;47.838;16.490;2023-03-14T07:39:44;3.28;;;1.67;;
55372;SDS011;41249;47.838;16.490;2023-03-14T07:42:10;2.45;;;1.55;;
55372;SDS011;41249;47.838;16.490;2023-03-14T07:44:37;7.10;;;1.83;;
55372;SDS011;41249;47.838;16.490;2023-03-14T07:47:03;4.07;;;1.80;;
55372;SDS011;41249;47.838;16.490;2023-03-14T07:49:30;6.20;;;1.55;;
55372;SDS011;41249;47.838;16.490;2023-03-14T07:51:57;3.42;;;1.40;;
55372;SDS011;41249;47.838;16.490;2023-03-14T07:54:24;3.17;;;1.42;;
55372;SDS011;41249;47.838;16.490;2023-03-14T07:56:51;5.13;;;1.73;;
55372;SDS011;41249;47.838;16.490;2023-03-14T07:59:18;4.95;;;1.90;;
55372;SDS011;41249;47.838;16.490;2023-03-14T08:01:45;4.47;;;1.70;;
55372;SDS011;41249;47.838;16.490;2023-03-14T08:04:11;5.25;;;1.70;;
55372;SDS011;41249;47.838;16.490;2023-03-14T08:06:38;2.17;;;1.67;;
55372;SDS011;41249;47.838;16.490;2023-03-14T08:09:05;4.70;;;1.60;;
55372;SDS011;41249;47.838;16.490;2023-03-14T08:11:31;4.75;;;1.77;;
55372;SDS011;41249;47.838;16.490;2023-03-14T08:13:58;3.72;;;1.58;;
55372;SDS011;41249;47.838;16.490;2023-03-14T08:16:25;3.22;;;1.60;;
55372;SDS011;41249;47.838;16.490;2023-03-14T08:18:51;3.10;;;1.60;;
55372;SDS011;41249;47.838;16.490;2023-03-14T08:21:18;5.55;;;1.60;;
55372;SDS011;41249;47.838;16.490;2023-03-14T08:23:45;2.67;;;1.55;;
55372;SDS011;41249;47.838;16.490;2023-03-14T08:26:11;4.22;;;1.75;;
55372;SDS011;41249;47.838;16.490;2023-03-14T08:28:38;3.45;;;1.35;;
55372;SDS011;41249;47.838;16.490;2023-03-14T08:31:05;3.95;;;1.40;;
55372;SDS011;41249;47.838;16.490;2023-03-14T08:33:32;3.13;;;1.60;;
55372;SDS011;41249;47.838;16.490;2023-03-14T08:35:59;3.65;;;1.60;;
55372;SDS011;41249;47.838;16.490;2023-03-14T08:38:26;2.90;;;1.50;;
55372;SDS011;41249;47.838;16.490;2023-03-14T08:41:00;3.22;;;1.30;;
55372;SDS011;41249;47.838;16.490;2023-03-14T08:43:28;3.15;;;1.60;;
55372;SDS011;41249;47.838;16.490;2023-03-14T08:45:59;3.70;;;1.80;;
55372;SDS011;41249;47.838;16.490;2023-03-14T08:48:27;3.35;;;1.50;;
55372;SDS011;41249;47.838;16.490;2023-03-14T08:50:56;3.80;;;1.60;;
55372;SDS011;41249;47.838;16.490;2023-03-14T08:53:23;2.25;;;1.65;;
55372;SDS011;41249;47.838;16.490;2023-03-14T08:55:53;2.08;;;1.13;;
55372;SDS011;41249;47.838;16.490;2023-03-14T08:58:20;3.35;;;1.48;;
55372;SDS011;41249;47.838;16.490;2023-03-14T09:00:49;3.80;;;1.63;;
55372;SDS011;41249;47.838;16.490;2023-03-14T09:03:16;2.97;;;1.30;;
55372;SDS011;41249;47.838;16.490;2023-03-14T09:05:43;2.28;;;1.50;;
55372;SDS011;41249;47.838;16.490;2023-03-14T09:08:09;3.97;;;1.40;;
55372;SDS011;41249;47.838;16.490;2023-03-14T09:10:36;1.95;;;1.20;;
55372;SDS011;41249;47.838;16.490;2023-03-14T09:13:04;3.50;;;1.20;;
55372;SDS011;41249;47.838;16.490;2023-03-14T09:15:31;1.70;;;1.30;;
55372;SDS011;41249;47.838;16.490;2023-03-14T09:17:58;2.30;;;1.15;;
55372;SDS011;41249;47.838;16.490;2023-03-14T09:20:25;2.42;;;1.25;;
55372;SDS011;41249;47.838;16.490;2023-03-14T09:22:52;4.95;;;1.35;;
55372;SDS011;41249;47.838;16.490;2023-03-14T09:25:19;3.08;;;1.10;;
55372;SDS011;41249;47.838;16.490;2023-03-14T09:27:45;3.58;;;1.30;;
55372;SDS011;41249;47.838;16.490;2023-03-14T09:30:12;3.85;;;1.75;;
55372;SDS011;41249;47.838;16.490;2023-03-14T09:32:39;2.90;;;1.23;;
55372;SDS011;41249;47.838;16.490;2023-03-14T09:35:06;2.22;;;1.25;;
55372;SDS011;41249;47.838;16.490;2023-03-14T09:37:32;2.83;;;1.05;;
55372;SDS011;41249;47.838;16.490;2023-03-14T09:39:59;3.10;;;1.20;;
55372;SDS011;41249;47.838;16.490;2023-03-14T09:42:26;2.63;;;1.15;;
55372;SDS011;41249;47.838;16.490;2023-03-14T09:44:58;4.85;;;1.15;;
55372;SDS011;41249;47.838;16.490;2023-03-14T09:47:27;3.60;;;1.23;;
55372;SDS011;41249;47.838;16.490;2023-03-14T09:49:55;2.47;;;1.20;;
55372;SDS011;41249;47.838;16.490;2023-03-14T09:54:52;2.63;;;1.13;;
55372;SDS011;41249;47.838;16.490;2023-03-14T09:57:24;5.70;;;1.63;;
55372;SDS011;41249;47.838;16.490;2023-03-14T09:59:52;3.97;;;1.42;;
55372;SDS011;41249;47.838;16.490;2023-03-14T10:02:32;3.65;;;1.10;;
55372;SDS011;41249;47.838;16.490;2023-03-14T10:05:01;2.90;;;1.40;;
55372;SDS011;41249;47.838;16.490;2023-03-14T10:07:32;3.72;;;1.20;;
55372;SDS011;41249;47.838;16.490;2023-03-14T10:09:59;7.97;;;1.10;;
55372;SDS011;41249;47.838;16.490;2023-03-14T10:12:30;4.28;;;1.20;;
55372;SDS011;41249;47.838;16.490;2023-03-14T10:15:02;2.97;;;1.30;;
55372;SDS011;41249;47.838;16.490;2023-03-14T10:17:38;2.75;;;0.80;;
55372;SDS011;41249;47.838;16.490;2023-03-14T10:20:25;2.08;;;1.10;;
55372;SDS011;41249;47.838;16.490;2023-03-14T10:23:01;2.33;;;1.40;;
55372;SDS011;41249;47.838;16.490;2023-03-14T10:25:31;2.47;;;1.00;;
55372;SDS011;41249;47.838;16.490;2023-03-14T10:27:59;3.40;;;1.27;;
55372;SDS011;41249;47.838;16.490;2023-03-14T10:30:34;3.95;;;0.90;;
55372;SDS011;41249;47.838;16.490;2023-03-14T10:33:21;5.53;;;1.15;;
55372;SDS011;41249;47.838;16.490;2023-03-14T10:35:56;4.00;;;1.20;;
55372;SDS011;41249;47.838;16.490;2023-03-14T10:38:43;4.72;;;0.95;;
55372;SDS011;41249;47.838;16.490;2023-03-14T10:41:22;2.53;;;0.80;;
55372;SDS011;41249;47.838;16.490;2023-03-14T10:43:56;3.90;;;1.25;;
55372;SDS011;41249;47.838;16.490;2023-03-14T10:48:53;2.40;;;0.90;;
55372;SDS011;41249;47.838;16.490;2023-03-14T10:51:24;2.95;;;1.20;;
55372;SDS011;41249;47.838;16.490;2023-03-14T10:53:57;2.88;;;1.10;;
55372;SDS011;41249;47.838;16.490;2023-03-14T10:56:27;3.38;;;1.20;;
55372;SDS011;41249;47.838;16.490;2023-03-14T10:58:59;2.05;;;1.10;;
55372;SDS011;41249;47.838;16.490;2023-03-14T11:01:42;2.10;;;1.10;;
55372;SDS011;41249;47.838;16.490;2023-03-14T11:07:22;3.15;;;1.17;;
55372;SDS011;41249;47.838;16.490;2023-03-14T11:09:56;2.50;;;1.48;;
55372;SDS011;41249;47.838;16.490;2023-03-14T11:21:18;5.28;;;1.30;;
55372;SDS011;41249;47.838;16.490;2023-03-14T11:29:51;2.58;;;1.40;;
55372;SDS011;41249;47.838;16.490;2023-03-14T11:35:12;7.97;;;2.45;;
55372;SDS011;41249;47.838;16.490;2023-03-14T11:40:56;10.77;;;2.42;;
55372;SDS011;41249;47.838;16.490;2023-03-14T11:43:38;5.25;;;2.30;;
55372;SDS011;41249;47.838;16.490;2023-03-14T11:48:45;3.90;;;1.88;;
55372;SDS011;41249;47.838;16.490;2023-03-14T11:51:34;5.82;;;1.70;;
55372;SDS011;41249;47.838;16.490;2023-03-14T11:56:42;2.13;;;1.15;;
55372;SDS011;41249;47.838;16.490;2023-03-14T12:10:39;0.57;;;0.57;;
55372;SDS011;41249;47.838;16.490;2023-03-14T12:13:10;1.02;;;0.65;;
55372;SDS011;41249;47.838;16.490;2023-03-14T12:15:40;0.82;;;0.50;;
55372;SDS011;41249;47.838;16.490;2023-03-14T12:18:26;0.60;;;0.50;;
55372;SDS011;41249;47.838;16.490;2023-03-14T12:20:58;0.55;;;0.50;;
55372;SDS011;41249;47.838;16.490;2023-03-14T12:23:27;0.70;;;0.45;;
55372;SDS011;41249;47.838;16.490;2023-03-14T12:29:23;1.13;;;0.50;;
55372;SDS011;41249;47.838;16.490;2023-03-14T12:42:07;1.10;;;0.30;;
55372;SDS011;41249;47.838;16.490;2023-03-14T12:47:45;0.40;;;0.40;;
55372;SDS011;41249;47.838;16.490;2023-03-14T12:50:26;2.60;;;0.40;;
55372;SDS011;41249;47.838;16.490;2023-03-14T13:01:19;1.38;;;0.30;;
55372;SDS011;41249;47.838;16.490;2023-03-14T13:03:47;0.55;;;0.40;;
55372;SDS011;41249;47.838;16.490;2023-03-14T13:12:03;3.53;;;0.30;;
55372;SDS011;41249;47.838;16.490;2023-03-14T13:14:49;0.30;;;0.30;;
55372;SDS011;41249;47.838;16.490;2023-03-14T13:17:26;1.27;;;0.50;;
55372;SDS011;41249;47.838;16.490;2023-03-14T13:20:10;0.30;;;0.30;;
55372;SDS011;41249;47.838;16.490;2023-03-14T13:22:45;0.50;;;0.40;;
55372;SDS011;41249;47.838;16.490;2023-03-14T13:25:13;0.70;;;0.47;;
55372;SDS011;41249;47.838;16.490;2023-03-14T13:27:40;2.05;;;0.73;;
55372;SDS011;41249;47.838;16.490;2023-03-14T13:30:42;0.85;;;0.50;;
55372;SDS011;41249;47.838;16.490;2023-03-14T13:33:13;1.38;;;0.50;;
55372;SDS011;41249;47.838;16.490;2023-03-14T13:35:47;2.72;;;1.33;;
55372;SDS011;41249;47.838;16.490;2023-03-14T13:38:15;5.32;;;1.95;;
55372;SDS011;41249;47.838;16.490;2023-03-14T13:40:44;4.05;;;1.80;;
55372;SDS011;41249;47.838;16.490;2023-03-14T13:43:19;5.05;;;2.13;;
55372;SDS011;41249;47.838;16.490;2023-03-14T13:45:53;4.53;;;1.20;;
55372;SDS011;41249;47.838;16.490;2023-03-14T13:48:29;12.00;;;4.13;;
55372;SDS011;41249;47.838;16.490;2023-03-14T13:50:59;4.40;;;2.00;;
55372;SDS011;41249;47.838;16.490;2023-03-14T13:53:29;1.42;;;0.75;;
55372;SDS011;41249;47.838;16.490;2023-03-14T13:55:57;2.78;;;1.00;;
55372;SDS011;41249;47.838;16.490;2023-03-14T13:58:30;1.23;;;0.70;;
55372;SDS011;41249;47.838;16.490;2023-03-14T14:01:05;2.75;;;1.23;;
55372;SDS011;41249;47.838;16.490;2023-03-14T14:03:39;0.60;;;0.40;;
55372;SDS011;41249;47.838;16.490;2023-03-14T14:06:11;1.45;;;0.40;;
55372;SDS011;41249;47.838;16.490;2023-03-14T14:08:47;1.58;;;0.75;;
55372;SDS011;41249;47.838;16.490;2023-03-14T14:11:18;0.82;;;0.60;;
55372;SDS011;41249;47.838;16.490;2023-03-14T14:14:13;1.55;;;0.63;;
55372;SDS011;41249;47.838;16.490;2023-03-14T14:16:45;1.15;;;0.55;;
55372;SDS011;41249;47.838;16.490;2023-03-14T14:19:13;1.35;;;0.60;;
55372;SDS011;41249;47.838;16.490;2023-03-14T14:21:42;2.35;;;0.75;;
55372;SDS011;41249;47.838;16.490;2023-03-14T14:24:12;1.42;;;0.47;;
55372;SDS011;41249;47.838;16.490;2023-03-14T14:26:41;1.75;;;0.50;;
55372;SDS011;41249;47.838;16.490;2023-03-14T14:32:14;0.32;;;0.22;;
55372;SDS011;41249;47.838;16.490;2023-03-14T14:34:42;0.47;;;0.40;;
55372;SDS011;41249;47.838;16.490;2023-03-14T14:39:54;0.88;;;0.30;;
55372;SDS011;41249;47.838;16.490;2023-03-14T14:42:24;1.15;;;0.40;;
55372;SDS011;41249;47.838;16.490;2023-03-14T14:47:28;0.60;;;0.20;;
55372;SDS011;41249;47.838;16.490;2023-03-14T14:49:58;0.40;;;0.28;;
55372;SDS011;41249;47.838;16.490;2023-03-14T14:55:18;0.55;;;0.40;;
55372;SDS011;41249;47.838;16.490;2023-03-14T14:57:50;0.45;;;0.30;;
55372;SDS011;41249;47.838;16.490;2023-03-14T15:00:20;0.50;;;0.40;;
55372;SDS011;41249;47.838;16.490;2023-03-14T15:02:49;0.30;;;0.30;;
55372;SDS011;41249;47.838;16.490;2023-03-14T15:05:24;0.70;;;0.30;;
55372;SDS011;41249;47.838;16.490;2023-03-14T15:07:53;0.68;;;0.40;;
55372;SDS011;41249;47.838;16.490;2023-03-14T15:10:21;0.30;;;0.25;;
55372;SDS011;41249;47.838;16.490;2023-03-14T15:12:50;1.30;;;0.70;;
55372;SDS011;41249;47.838;16.490;2023-03-14T15:15:17;0.47;;;0.38;;
55372;SDS011;41249;47.838;16.490;2023-03-14T15:17:44;0.40;;;0.40;;
55372;SDS011;41249;47.838;16.490;2023-03-14T15:20:12;0.40;;;0.40;;
55372;SDS011;41249;47.838;16.490;2023-03-14T15:22:41;0.55;;;0.50;;
55372;SDS011;41249;47.838;16.490;2023-03-14T15:25:08;1.00;;;0.20;;
55372;SDS011;41249;47.838;16.490;2023-03-14T15:27:47;0.85;;;0.50;;
55372;SDS011;41249;47.838;16.490;2023-03-14T15:30:14;0.30;;;0.30;;
55372;SDS011;41249;47.838;16.490;2023-03-14T15:32:42;0.20;;;0.20;;
55372;SDS011;41249;47.838;16.490;2023-03-14T15:35:09;0.70;;;0.40;;
55372;SDS011;41249;47.838;16.490;2023-03-14T15:37:35;0.40;;;0.40;;
55372;SDS011;41249;47.838;16.490;2023-03-14T15:40:03;0.22;;;0.22;;
55372;SDS011;41249;47.838;16.490;2023-03-14T15:42:40;0.95;;;0.30;;
55372;SDS011;41249;47.838;16.490;2023-03-14T15:45:07;0.20;;;0.20;;
55372;SDS011;41249;47.838;16.490;2023-03-14T15:47:35;0.20;;;0.20;;
55372;SDS011;41249;47.838;16.490;2023-03-14T15:50:01;0.20;;;0.20;;
55372;SDS011;41249;47.838;16.490;2023-03-14T15:52:28;0.47;;;0.30;;
55372;SDS011;41249;47.838;16.490;2023-03-14T15:54:55;0.60;;;0.32;;
55372;SDS011;41249;47.838;16.490;2023-03-14T15:57:22;1.33;;;0.35;;
55372;SDS011;41249;47.838;16.490;2023-03-14T15:59:48;0.20;;;0.20;;
55372;SDS011;41249;47.838;16.490;2023-03-14T16:02:15;0.35;;;0.30;;
55372;SDS011;41249;47.838;16.490;2023-03-14T16:04:41;0.50;;;0.32;;
55372;SDS011;41249;47.838;16.490;2023-03-14T16:07:08;0.43;;;0.30;;
55372;SDS011;41249;47.838;16.490;2023-03-14T16:09:35;0.73;;;0.40;;
55372;SDS011;41249;47.838;16.490;2023-03-14T16:12:02;0.93;;;0.50;;
55372;SDS011;41249;47.838;16.490;2023-03-14T16:14:31;1.35;;;0.73;;
55372;SDS011;41249;47.838;16.490;2023-03-14T16:16:57;0.85;;;0.47;;
55372;SDS011;41249;47.838;16.490;2023-03-14T16:19:25;2.63;;;0.50;;